createdAt,value
2023-03-29T00:01:52.225Z,100876.94
2023-03-29T00:04:20.790Z,100882.09
2023-03-29T00:06:50.578Z,100887.31
2023-03-29T00:09:18.341Z,100876.03
2023-03-29T00:11:45.973Z,100886.44
2023-03-29T00:14:13.142Z,100880.34
2023-03-29T00:16:40.105Z,100885.56
2023-03-29T00:19:06.855Z,100880.34
2023-03-29T00:21:33.445Z,100888.13
2023-03-29T00:24:00.579Z,100879.44
2023-03-29T00:26:27.187Z,100882.03
2023-03-29T00:28:53.765Z,100875.97
2023-03-29T00:31:20.446Z,100877.72
2023-03-29T00:33:47.622Z,100862.94
2023-03-29T00:36:14.696Z,100866.41
2023-03-29T00:38:41.685Z,100879.41
2023-03-29T00:41:10.115Z,100880.28
2023-03-29T00:43:52.851Z,100885.47
2023-03-29T00:46:19.520Z,100879.34
2023-03-29T00:48:46.657Z,100878.50
2023-03-29T00:51:16.628Z,100878.50
2023-03-29T00:53:48.973Z,100871.53
2023-03-29T00:56:40.278Z,100868.94
2023-03-29T00:59:14.080Z,100875.03
2023-03-29T01:01:54.987Z,100867.22
2023-03-29T01:04:33.997Z,100862.88
2023-03-29T01:07:13.696Z,100855.91
2023-03-29T01:09:45.594Z,100861.97
2023-03-29T01:12:19.954Z,100858.47
2023-03-29T01:15:13.866Z,100861.00
2023-03-29T01:17:43.521Z,100851.44
2023-03-29T01:20:21.064Z,100858.38
2023-03-29T01:23:21.365Z,100849.72
2023-03-29T01:26:01.133Z,100859.25
2023-03-29T01:28:39.253Z,100864.44
2023-03-29T01:31:12.794Z,100862.75
2023-03-29T01:33:46.169Z,100862.72
2023-03-29T01:36:19.299Z,100856.59
2023-03-29T01:39:12.302Z,100860.06
2023-03-29T01:41:40.154Z,100864.44
2023-03-29T01:44:13.728Z,100860.97
2023-03-29T01:46:48.417Z,100866.13
2023-03-29T01:49:40.109Z,100873.06
2023-03-29T01:52:19.170Z,100871.28
2023-03-29T01:54:54.796Z,100868.69
2023-03-29T01:57:25.181Z,100869.53
2023-03-29T01:59:54.500Z,100870.44
2023-03-29T02:02:23.453Z,100876.47
2023-03-29T02:04:55.130Z,100875.56
2023-03-29T02:07:26.493Z,100876.44
2023-03-29T02:09:55.676Z,100870.31
2023-03-29T02:12:22.870Z,100872.91
2023-03-29T02:14:49.558Z,100865.97
2023-03-29T02:17:20.725Z,100866.88
2023-03-29T02:19:52.119Z,100857.28
2023-03-29T02:22:24.851Z,100860.75
2023-03-29T02:24:59.238Z,100864.19
2023-03-29T02:27:29.191Z,100863.31
2023-03-29T02:29:56.404Z,100862.50
2023-03-29T02:32:33.556Z,100865.94
2023-03-29T02:35:21.932Z,100866.84
2023-03-29T02:37:52.971Z,100862.50
2023-03-29T02:40:21.716Z,100862.50
2023-03-29T02:42:49.125Z,100862.53
2023-03-29T02:45:20.061Z,100859.94
2023-03-29T02:47:53.611Z,100853.88
2023-03-29T02:50:21.122Z,100867.72
2023-03-29T02:52:54.946Z,100862.50
2023-03-29T02:55:24.717Z,100865.13
2023-03-29T02:57:51.472Z,100860.81
2023-03-29T03:00:23.175Z,100858.25
2023-03-29T03:02:53.415Z,100847.88
2023-03-29T03:05:20.048Z,100852.22
2023-03-29T03:07:47.069Z,100854.84
2023-03-29T03:10:14.327Z,100850.50
2023-03-29T03:12:42.860Z,100840.09
2023-03-29T03:15:10.535Z,100845.31
2023-03-29T03:17:40.063Z,100839.25
2023-03-29T03:20:14.606Z,100841.88
2023-03-29T03:22:44.285Z,100846.22
2023-03-29T03:25:11.385Z,100851.44
2023-03-29T03:27:38.554Z,100847.16
2023-03-29T03:30:07.141Z,100852.34
2023-03-29T03:32:36.811Z,100849.75
2023-03-29T03:35:05.612Z,100853.25
2023-03-29T03:37:32.404Z,100853.28
2023-03-29T03:39:59.440Z,100844.59
2023-03-29T03:42:29.581Z,100854.16
2023-03-29T03:44:56.647Z,100848.09
2023-03-29T03:47:23.760Z,100853.31
2023-03-29T03:49:51.561Z,100858.50
2023-03-29T03:52:19.151Z,100856.81
2023-03-29T03:54:46.723Z,100852.47
2023-03-29T03:57:13.557Z,100845.56
2023-03-29T03:59:40.370Z,100852.53
2023-03-29T04:02:07.514Z,100841.22
2023-03-29T04:04:34.415Z,100862.94
2023-03-29T04:07:04.372Z,100860.41
2023-03-29T04:09:33.260Z,100850.84
2023-03-29T04:12:01.565Z,100849.13
2023-03-29T04:14:29.370Z,100839.56
2023-03-29T04:16:56.067Z,100835.25
2023-03-29T04:19:23.136Z,100837.84
2023-03-29T04:21:51.282Z,100841.31
2023-03-29T04:24:17.894Z,100847.41
2023-03-29T04:26:44.648Z,100850.91
2023-03-29T04:29:12.042Z,100857.88
2023-03-29T04:31:38.703Z,100863.06
2023-03-29T04:34:05.366Z,100876.09
2023-03-29T04:36:32.143Z,100865.69
2023-03-29T04:39:01.572Z,100869.16
2023-03-29T04:41:28.783Z,100871.75
2023-03-29T04:43:56.450Z,100876.13
2023-03-29T04:46:26.751Z,100873.50
2023-03-29T04:48:54.150Z,100869.16
2023-03-29T04:51:22.494Z,100876.06
2023-03-29T04:53:50.379Z,100882.19
2023-03-29T04:56:17.335Z,100866.50
2023-03-29T04:58:44.542Z,100877.81
2023-03-29T05:01:11.429Z,100879.53
2023-03-29T05:03:38.154Z,100870.81
2023-03-29T05:06:12.207Z,100876.06
2023-03-29T05:08:40.362Z,100882.13
2023-03-29T05:11:10.343Z,100884.75
2023-03-29T05:13:37.860Z,100882.13
2023-03-29T05:16:04.819Z,100889.06
2023-03-29T05:18:31.942Z,100876.00
2023-03-29T05:21:01.857Z,100882.03
2023-03-29T05:23:28.929Z,100887.22
2023-03-29T05:25:55.549Z,100892.44
2023-03-29T05:28:22.517Z,100893.28
2023-03-29T16:59:06.664Z,100673.53
2023-03-29T17:01:33.312Z,100663.03
2023-03-29T17:03:59.976Z,100673.41
2023-03-29T17:06:26.900Z,100675.06
2023-03-29T17:08:53.828Z,100664.56
2023-03-29T17:11:23.559Z,100660.94
2023-03-29T17:13:53.993Z,100670.53
2023-03-29T17:16:28.033Z,100672.25
2023-03-29T17:18:54.713Z,100664.34
2023-03-29T17:21:21.383Z,100636.41
2023-03-29T17:23:47.931Z,100623.34
2023-03-29T17:26:14.548Z,100615.53
2023-03-29T17:28:44.315Z,100629.50
2023-03-29T17:31:11.199Z,100631.25
2023-03-29T17:33:37.964Z,100635.59
2023-03-29T17:36:05.920Z,100646.09
2023-03-29T17:38:36.790Z,100643.44
2023-03-29T17:41:04.612Z,100648.63
2023-03-29T17:43:31.919Z,100658.22
2023-03-29T17:45:58.500Z,100663.50
2023-03-29T17:48:25.764Z,100665.28
2023-03-29T17:50:56.376Z,100679.25
2023-03-29T17:53:23.048Z,100669.72
2023-03-29T17:55:49.736Z,100676.69
2023-03-29T17:58:19.481Z,100674.13
2023-03-29T18:00:46.086Z,100670.66
2023-03-29T18:03:12.782Z,100675.06
2023-03-29T18:05:39.370Z,100667.19
2023-03-29T18:08:06.159Z,100666.31
2023-03-29T18:10:32.854Z,100663.69
2023-03-29T18:13:00.602Z,100656.75
2023-03-29T18:15:27.163Z,100655.00
2023-03-29T18:17:54.608Z,100648.88
2023-03-29T18:20:21.247Z,100641.91
2023-03-29T18:22:47.872Z,100640.16
2023-03-29T18:25:16.510Z,100638.44
2023-03-29T18:27:43.052Z,100654.13
2023-03-29T18:30:10.272Z,100639.38
2023-03-29T18:32:37.932Z,100622.88
2023-03-29T18:35:05.060Z,100618.56
2023-03-29T18:37:31.911Z,100636.00
2023-03-29T18:39:58.595Z,100634.34
2023-03-29T18:42:25.270Z,100630.06
2023-03-29T18:44:52.033Z,100636.16
2023-03-29T18:47:20.057Z,100638.84
2023-03-29T18:49:47.308Z,100631.91
2023-03-29T18:52:14.247Z,100627.59
2023-03-29T18:54:41.622Z,100625.88
2023-03-29T18:57:09.292Z,100624.16
2023-03-29T18:59:36.629Z,100623.28
2023-03-29T19:02:07.037Z,100620.69
2023-03-29T19:04:33.713Z,100622.47
2023-03-29T19:07:01.462Z,100622.47
2023-03-29T19:09:29.097Z,100616.41
2023-03-29T19:11:55.759Z,100621.66
2023-03-29T19:14:25.211Z,100614.69
2023-03-29T19:16:53.097Z,100619.06
2023-03-29T19:19:21.404Z,100606.03
2023-03-29T19:21:48.057Z,100596.44
2023-03-29T19:24:15.888Z,100608.63
2023-03-29T19:26:44.458Z,100599.91
2023-03-29T19:29:11.678Z,100593.78
2023-03-29T19:31:38.477Z,100592.88
2023-03-29T19:34:07.045Z,100592.91
2023-03-29T19:36:33.857Z,100592.03
2023-03-29T19:39:01.869Z,100609.44
2023-03-29T19:41:28.754Z,100605.91
2023-03-29T19:43:55.516Z,100607.66
2023-03-29T19:46:23.217Z,100607.69
2023-03-29T19:48:51.765Z,100608.53
2023-03-29T19:51:18.338Z,100595.50
2023-03-29T19:53:44.992Z,100600.69
2023-03-29T19:56:13.266Z,100586.81
2023-03-29T19:58:40.933Z,100587.59
2023-03-29T20:01:08.439Z,100585.00
2023-03-29T20:03:36.234Z,100583.31
2023-03-29T20:06:03.164Z,100577.22
2023-03-29T20:08:30.758Z,100582.47
2023-03-29T20:11:03.849Z,100590.34
2023-03-29T20:13:38.167Z,100589.47
2023-03-29T20:16:10.047Z,100592.09
2023-03-29T20:18:40.041Z,100590.28
2023-03-29T20:21:08.038Z,100601.59
2023-03-29T20:23:36.173Z,100598.97
2023-03-29T20:26:03.275Z,100599.00
2023-03-29T20:28:29.892Z,100599.88
2023-03-29T20:30:57.208Z,100598.13
2023-03-29T20:33:23.918Z,100587.66
2023-03-29T20:35:50.574Z,100586.81
2023-03-29T20:38:17.291Z,100587.69
2023-03-29T20:40:44.907Z,100579.00
2023-03-29T20:43:13.613Z,100584.25
2023-03-29T20:45:52.738Z,100586.84
2023-03-29T20:48:23.223Z,100592.09
2023-03-29T20:50:50.587Z,100594.69
2023-03-29T20:53:18.367Z,100594.69
2023-03-29T20:55:45.316Z,100592.13
2023-03-29T20:58:12.964Z,100586.91
2023-03-29T21:00:40.455Z,100593.03
2023-03-29T21:03:08.525Z,100593.03
2023-03-29T21:05:35.772Z,100589.56
2023-03-29T21:08:04.471Z,100593.06
2023-03-29T21:10:31.326Z,100600.06
2023-03-29T21:13:02.791Z,100594.00
2023-03-29T21:15:30.820Z,100595.75
2023-03-29T21:17:58.091Z,100590.56
2023-03-29T21:20:25.049Z,100595.81
2023-03-29T21:22:51.749Z,100593.19
2023-03-29T21:25:19.182Z,100595.84
2023-03-29T21:27:48.346Z,100593.22
2023-03-29T21:30:15.120Z,100598.41
2023-03-29T21:32:41.740Z,100592.28
2023-03-29T21:35:09.223Z,100596.56
2023-03-29T21:37:36.102Z,100593.97
2023-03-29T21:40:05.992Z,100588.72
2023-03-29T21:42:35.859Z,100582.59
2023-03-29T21:45:03.334Z,100589.56
2023-03-29T21:47:30.474Z,100586.09
2023-03-29T21:49:57.345Z,100582.56
2023-03-29T21:52:23.953Z,100579.06
2023-03-29T21:54:50.618Z,100570.34
2023-03-29T21:57:17.346Z,100571.22
2023-03-29T21:59:44.834Z,100563.38
2023-03-29T22:02:11.752Z,100567.75
2023-03-29T22:04:38.473Z,100571.25
2023-03-29T22:07:06.323Z,100564.28
2023-03-29T22:09:35.023Z,100556.47
2023-03-29T22:12:02.357Z,100558.13
2023-03-29T22:14:30.291Z,100552.88
2023-03-29T22:16:57.097Z,100547.59
2023-03-29T22:19:23.860Z,100548.41
2023-03-29T22:21:51.444Z,100544.03
2023-03-29T22:24:18.491Z,100537.03
2023-03-29T22:26:45.397Z,100539.63
2023-03-29T22:29:12.304Z,100530.88
2023-03-29T22:31:39.567Z,100531.72
2023-03-29T22:34:06.914Z,100529.97
2023-03-29T22:36:35.654Z,100529.94
2023-03-29T22:39:02.255Z,100526.44
2023-03-29T22:41:29.420Z,100527.28
2023-03-29T22:43:58.227Z,100524.69
2023-03-29T22:46:25.492Z,100515.88
2023-03-29T22:48:52.571Z,100519.28
2023-03-29T22:51:20.095Z,100517.47
2023-03-29T22:53:47.196Z,100521.72
2023-03-29T22:56:15.555Z,100519.88
2023-03-29T22:58:43.606Z,100513.69
2023-03-29T23:01:10.853Z,100511.00
2023-03-29T23:03:38.475Z,100504.88
2023-03-29T23:06:05.625Z,100507.47
2023-03-29T23:08:33.821Z,100515.28
2023-03-29T23:11:03.172Z,100511.75
2023-03-29T23:13:30.343Z,100518.59
2023-03-29T23:15:59.305Z,100507.25
2023-03-29T23:18:28.696Z,100519.34
2023-03-29T23:20:57.212Z,100509.78
2023-03-29T23:23:25.695Z,100510.56
2023-03-29T23:25:53.644Z,100506.19
2023-03-29T23:28:23.473Z,100505.34
2023-03-29T23:31:06.305Z,100511.44
2023-03-29T23:33:35.593Z,100511.41
2023-03-29T23:36:05.453Z,100502.63
2023-03-29T23:38:34.524Z,100505.25
2023-03-29T23:41:03.195Z,100500.94
2023-03-29T23:43:32.913Z,100499.16
2023-03-29T23:46:01.893Z,100494.75
2023-03-29T23:48:28.924Z,100495.59
2023-03-29T23:50:59.423Z,100495.59
2023-03-29T23:53:29.544Z,100489.44
2023-03-29T23:56:01.341Z,100487.72
2023-03-29T23:58:29.897Z,100481.75
